sensor_id;sensor_type;location;lat;lon;timestamp;pressure;altitude;pressure_sealevel;temperature;humidity
16834;BME280;8533;48.426;10.868;2023-02-03T00:02:09;97244.72;;;3.68;100.00
16834;BME280;8533;48.426;10.868;2023-02-03T00:04:37;97241.33;;;3.68;100.00
16834;BME280;8533;48.426;10.868;2023-02-03T00:07:04;97243.91;;;3.68;100.00
16834;BME280;8533;48.426;10.868;2023-02-03T00:09:31;97235.50;;;3.70;100.00
16834;BME280;8533;48.426;10.868;2023-02-03T00:11:59;97222.39;;;3.71;100.00
16834;BME280;8533;48.426;10.868;2023-02-03T00:14:26;97223.38;;;3.70;100.00
16834;BME280;8533;48.426;10.868;2023-02-03T00:16:54;97223.05;;;3.69;100.00
16834;BME280;8533;48.426;10.868;2023-02-03T00:19:21;97226.77;;;3.71;100.00
16834;BME280;8533;48.426;10.868;2023-02-03T00:21:48;97225.47;;;3.71;100.00
16834;BME280;8533;48.426;10.868;2023-02-03T00:24:16;97226.44;;;3.70;100.00
16834;BME280;8533;48.426;10.868;2023-02-03T00:26:45;97224.50;;;3.72;100.00
16834;BME280;8533;48.426;10.868;2023-02-03T00:29:12;97232.59;;;3.69;100.00
16834;BME280;8533;48.426;10.868;2023-02-03T00:31:40;97234.86;;;3.68;100.00
16834;BME280;8533;48.426;10.868;2023-02-03T00:34:07;97235.03;;;3.66;100.00
16834;BME280;8533;48.426;10.868;2023-02-03T00:36:35;97231.78;;;3.68;100.00
16834;BME280;8533;48.426;10.868;2023-02-03T00:39:03;97231.62;;;3.70;100.00
16834;BME280;8533;48.426;10.868;2023-02-03T00:41:30;97232.25;;;3.72;100.00
16834;BME280;8533;48.426;10.868;2023-02-03T00:43:58;97232.25;;;3.72;100.00
16834;BME280;8533;48.426;10.868;2023-02-03T00:46:25;97228.98;;;3.74;100.00
16834;BME280;8533;48.426;10.868;2023-02-03T00:48:52;97229.30;;;3.75;100.00
16834;BME280;8533;48.426;10.868;2023-02-03T00:51:20;97227.03;;;3.76;100.00
16834;BME280;8533;48.426;10.868;2023-02-03T00:53:48;97223.15;;;3.76;100.00
16834;BME280;8533;48.426;10.868;2023-02-03T00:56:15;97230.25;;;3.78;100.00
16834;BME280;8533;48.426;10.868;2023-02-03T00:58:43;97234.63;;;3.77;100.00
16834;BME280;8533;48.426;10.868;2023-02-03T01:01:10;97240.38;;;3.83;100.00
16834;BME280;8533;48.426;10.868;2023-02-03T01:03:37;97256.88;;;3.82;100.00
16834;BME280;8533;48.426;10.868;2023-02-03T01:06:19;97252.69;;;3.81;100.00
16834;BME280;8533;48.426;10.868;2023-02-03T01:08:46;97249.00;;;3.80;100.00
16834;BME280;8533;48.426;10.868;2023-02-03T01:11:16;97246.37;;;3.84;100.00
16834;BME280;8533;48.426;10.868;2023-02-03T01:13:44;97258.48;;;3.88;100.00
16834;BME280;8533;48.426;10.868;2023-02-03T01:16:14;97257.67;;;3.87;100.00
16834;BME280;8533;48.426;10.868;2023-02-03T01:18:43;97256.86;;;3.87;100.00
16834;BME280;8533;48.426;10.868;2023-02-03T01:21:13;97252.94;;;3.91;100.00
16834;BME280;8533;48.426;10.868;2023-02-03T01:23:42;97259.55;;;3.93;100.00
16834;BME280;8533;48.426;10.868;2023-02-03T01:26:12;97247.27;;;3.91;100.00
16834;BME280;8533;48.426;10.868;2023-02-03T01:28:40;97243.39;;;3.91;100.00
16834;BME280;8533;48.426;10.868;2023-02-03T01:31:20;97230.59;;;3.94;100.00
16834;BME280;8533;48.426;10.868;2023-02-03T01:33:43;97250.64;;;3.96;100.00
16834;BME280;8533;48.426;10.868;2023-02-03T01:36:15;97250.81;;;3.94;100.00
16834;BME280;8533;48.426;10.868;2023-02-03T01:38:43;97254.86;;;3.93;100.00
16834;BME280;8533;48.426;10.868;2023-02-03T01:41:17;97253.72;;;3.95;100.00
16834;BME280;8533;48.426;10.868;2023-02-03T01:43:52;97242.87;;;3.96;100.00
16834;BME280;8533;48.426;10.868;2023-02-03T01:46:29;97233.02;;;3.95;100.00
16834;BME280;8533;48.426;10.868;2023-02-03T01:51:42;97231.72;;;3.95;100.00
16834;BME280;8533;48.426;10.868;2023-02-03T01:54:19;97218.14;;;3.93;100.00
16834;BME280;8533;48.426;10.868;2023-02-03T01:56:43;97222.20;;;3.92;100.00
16834;BME280;8533;48.426;10.868;2023-02-03T01:59:14;97225.59;;;3.92;100.00
16834;BME280;8533;48.426;10.868;2023-02-03T02:01:42;97229.47;;;3.92;100.00
16834;BME280;8533;48.426;10.868;2023-02-03T02:04:10;97225.59;;;3.92;100.00
16834;BME280;8533;48.426;10.868;2023-02-03T02:06:38;97228.18;;;3.92;100.00
16834;BME280;8533;48.426;10.868;2023-02-03T02:09:05;97222.37;;;3.90;100.00
16834;BME280;8533;48.426;10.868;2023-02-03T02:11:33;97214.58;;;3.94;100.00
16834;BME280;8533;48.426;10.868;2023-02-03T02:14:02;97214.90;;;3.95;100.00
16834;BME280;8533;48.426;10.868;2023-02-03T02:16:44;97211.02;;;3.95;100.00
16834;BME280;8533;48.426;10.868;2023-02-03T02:21:47;97214.67;;;4.01;100.00
16834;BME280;8533;48.426;10.868;2023-02-03T02:27:28;97226.37;;;3.97;100.00
16834;BME280;8533;48.426;10.868;2023-02-03T02:30:02;97226.66;;;3.98;100.00
16834;BME280;8533;48.426;10.868;2023-02-03T02:32:39;97215.97;;;4.01;100.00
16834;BME280;8533;48.426;10.868;2023-02-03T02:37:52;97206.77;;;3.98;100.00
16834;BME280;8533;48.426;10.868;2023-02-03T02:40:34;97210.04;;;3.96;100.00
16834;BME280;8533;48.426;10.868;2023-02-03T02:45:43;97209.09;;;3.93;100.00
16834;BME280;8533;48.426;10.868;2023-02-03T02:48:09;97202.79;;;3.92;100.00
16834;BME280;8533;48.426;10.868;2023-02-03T02:50:41;97205.67;;;3.97;100.00
16834;BME280;8533;48.426;10.868;2023-02-03T02:53:09;97204.17;;;3.98;100.00
16834;BME280;8533;48.426;10.868;2023-02-03T02:55:39;97212.14;;;3.97;100.00
16834;BME280;8533;48.426;10.868;2023-02-03T02:58:13;97204.06;;;3.96;100.00
16834;BME280;8533;48.426;10.868;2023-02-03T03:00:42;97199.05;;;3.94;100.00
16834;BME280;8533;48.426;10.868;2023-02-03T03:03:14;97200.66;;;3.95;100.00
16834;BME280;8533;48.426;10.868;2023-02-03T03:05:48;97196.61;;;3.97;100.00
16834;BME280;8533;48.426;10.868;2023-02-03T03:08:17;97184.65;;;3.96;100.00
16834;BME280;8533;48.426;10.868;2023-02-03T03:10:46;97193.22;;;3.96;100.00
16834;BME280;8533;48.426;10.868;2023-02-03T03:13:18;97197.09;;;3.96;100.00
16834;BME280;8533;48.426;10.868;2023-02-03T03:15:45;97189.02;;;3.95;100.00
16834;BME280;8533;48.426;10.868;2023-02-03T03:18:20;97192.91;;;3.95;100.00
16834;BME280;8533;48.426;10.868;2023-02-03T03:20:45;97202.59;;;3.97;100.00
16834;BME280;8533;48.426;10.868;2023-02-03T03:23:25;97202.08;;;3.98;100.00
16834;BME280;8533;48.426;10.868;2023-02-03T03:25:53;97200.01;;;3.97;100.00
16834;BME280;8533;48.426;10.868;2023-02-03T03:28:23;97201.30;;;3.97;100.00
16834;BME280;8533;48.426;10.868;2023-02-03T03:30:52;97185.77;;;3.97;100.00
16834;BME280;8533;48.426;10.868;2023-02-03T03:33:20;97192.91;;;3.95;100.00
16834;BME280;8533;48.426;10.868;2023-02-03T03:36:13;97205.84;;;3.95;100.00
16834;BME280;8533;48.426;10.868;2023-02-03T03:38:45;97189.66;;;3.97;100.00
16834;BME280;8533;48.426;10.868;2023-02-03T03:43:48;97184.77;;;3.98;100.00
16834;BME280;8533;48.426;10.868;2023-02-03T03:46:22;97194.31;;;3.98;100.00
16834;BME280;8533;48.426;10.868;2023-02-03T03:48:55;97196.78;;;3.95;100.00
16834;BME280;8533;48.426;10.868;2023-02-03T03:51:28;97201.16;;;3.95;100.00
16834;BME280;8533;48.426;10.868;2023-02-03T03:53:59;97189.83;;;3.96;100.00
16834;BME280;8533;48.426;10.868;2023-02-03T03:56:32;97199.20;;;3.97;100.00
16834;BME280;8533;48.426;10.868;2023-02-03T03:59:01;97199.63;;;4.00;100.00
16834;BME280;8533;48.426;10.868;2023-02-03T04:01:30;97203.52;;;4.00;100.00
16834;BME280;8533;48.426;10.868;2023-02-03T04:04:01;97206.59;;;4.00;100.00
16834;BME280;8533;48.426;10.868;2023-02-03T04:06:29;97199.63;;;4.00;100.00
16834;BME280;8533;48.426;10.868;2023-02-03T04:08:56;97208.03;;;4.02;100.00
16834;BME280;8533;48.426;10.868;2023-02-03T04:11:23;97197.63;;;4.06;100.00
16834;BME280;8533;48.426;10.868;2023-02-03T04:14:08;97211.37;;;4.07;100.00
16834;BME280;8533;48.426;10.868;2023-02-03T04:16:36;97223.83;;;4.07;100.00
16834;BME280;8533;48.426;10.868;2023-02-03T04:19:03;97231.27;;;4.06;100.00
16834;BME280;8533;48.426;10.868;2023-02-03T04:21:31;97228.17;;;4.11;100.00
16834;BME280;8533;48.426;10.868;2023-02-03T04:23:58;97221.55;;;4.08;100.00
16834;BME280;8533;48.426;10.868;2023-02-03T04:26:25;97223.02;;;4.07;100.00
16834;BME280;8533;48.426;10.868;2023-02-03T04:28:53;97223.22;;;4.05;100.00
16834;BME280;8533;48.426;10.868;2023-02-03T04:31:20;97224.45;;;4.09;100.00
16834;BME280;8533;48.426;10.868;2023-02-03T04:33:48;97233.52;;;4.09;100.00
16834;BME280;8533;48.426;10.868;2023-02-03T04:36:15;97243.70;;;4.11;100.00
16834;BME280;8533;48.426;10.868;2023-02-03T04:38:42;97247.41;;;4.12;100.00
16834;BME280;8533;48.426;10.868;2023-02-03T04:41:10;97228.34;;;4.09;100.00
16834;BME280;8533;48.426;10.868;2023-02-03T04:43:37;97230.12;;;4.09;100.00
16834;BME280;8533;48.426;10.868;2023-02-03T04:46:05;97226.56;;;4.10;100.00
16834;BME280;8533;48.426;10.868;2023-02-03T04:48:32;97213.45;;;4.11;100.00
16834;BME280;8533;48.426;10.868;2023-02-03T04:51:04;97210.71;;;4.09;100.00
16834;BME280;8533;48.426;10.868;2023-02-03T04:53:32;97213.16;;;4.06;100.00
16834;BME280;8533;48.426;10.868;2023-02-03T04:55:59;97214.16;;;4.05;100.00
16834;BME280;8533;48.426;10.868;2023-02-03T04:58:27;97213.36;;;4.05;100.00
16834;BME280;8533;48.426;10.868;2023-02-03T05:00:54;97215.38;;;4.13;100.00
16834;BME280;8533;48.426;10.868;2023-02-03T05:03:22;97211.52;;;4.09;100.00
16834;BME280;8533;48.426;10.868;2023-02-03T05:05:50;97219.63;;;4.06;100.00
16834;BME280;8533;48.426;10.868;2023-02-03T05:08:17;97215.25;;;4.07;100.00
16834;BME280;8533;48.426;10.868;2023-02-03T05:10:45;97216.23;;;4.06;100.00
16834;BME280;8533;48.426;10.868;2023-02-03T05:13:12;97206.20;;;4.07;100.00
16834;BME280;8533;48.426;10.868;2023-02-03T05:15:39;97206.02;;;4.08;100.00
16834;BME280;8533;48.426;10.868;2023-02-03T05:18:07;97194.38;;;4.08;100.00
16834;BME280;8533;48.426;10.868;2023-02-03T05:20:34;97194.05;;;4.07;100.00
16834;BME280;8533;48.426;10.868;2023-02-03T05:23:02;97205.70;;;4.07;100.00
16834;BME280;8533;48.426;10.868;2023-02-03T05:25:29;97190.80;;;4.09;100.00
16834;BME280;8533;48.426;10.868;2023-02-03T05:27:57;97183.84;;;4.10;100.00
16834;BME280;8533;48.426;10.868;2023-02-03T05:30:24;97171.88;;;4.09;100.00
16834;BME280;8533;48.426;10.868;2023-02-03T05:32:52;97162.16;;;4.11;100.00
16834;BME280;8533;48.426;10.868;2023-02-03T05:35:19;97166.88;;;4.07;100.00
16834;BME280;8533;48.426;10.868;2023-02-03T05:37:47;97167.05;;;4.06;100.00
16834;BME280;8533;48.426;10.868;2023-02-03T05:40:14;97179.70;;;4.05;100.00
16834;BME280;8533;48.426;10.868;2023-02-03T05:43:00;97186.61;;;4.08;100.00
16834;BME280;8533;48.426;10.868;2023-02-03T05:45:27;97189.02;;;4.10;100.00
16834;BME280;8533;48.426;10.868;2023-02-03T05:47:54;97176.57;;;4.09;100.00
16834;BME280;8533;48.426;10.868;2023-02-03T05:50:22;97170.09;;;4.09;100.00
16834;BME280;8533;48.426;10.868;2023-02-03T05:52:49;97162.67;;;4.06;100.00
16834;BME280;8533;48.426;10.868;2023-02-03T05:55:17;97163.05;;;4.03;100.00
16834;BME280;8533;48.426;10.868;2023-02-03T05:57:44;97166.27;;;4.05;100.00
16834;BME280;8533;48.426;10.868;2023-02-03T06:00:12;97172.60;;;4.03;100.00
16834;BME280;8533;48.426;10.868;2023-02-03T06:02:40;97177.86;;;4.09;100.00
16834;BME280;8533;48.426;10.868;2023-02-03T06:05:07;97176.11;;;4.06;100.00
16834;BME280;8533;48.426;10.868;2023-02-03T06:07:35;97178.91;;;4.04;100.00
16834;BME280;8533;48.426;10.868;2023-02-03T06:10:02;97183.38;;;4.06;100.00
16834;BME280;8533;48.426;10.868;2023-02-03T06:12:30;97191.64;;;4.06;100.00
16834;BME280;8533;48.426;10.868;2023-02-03T06:14:57;97190.17;;;4.07;100.00
16834;BME280;8533;48.426;10.868;2023-02-03T06:17:25;97197.77;;;4.09;100.00
16834;BME280;8533;48.426;10.868;2023-02-03T06:19:52;97192.10;;;4.09;100.00
16834;BME280;8533;48.426;10.868;2023-02-03T06:22:19;97203.61;;;4.07;100.00
16834;BME280;8533;48.426;10.868;2023-02-03T06:24:47;97190.06;;;4.05;100.00
16834;BME280;8533;48.426;10.868;2023-02-03T06:27:15;97170.50;;;4.02;100.00
16834;BME280;8533;48.426;10.868;2023-02-03T06:29:42;97161.61;;;4.01;100.00
16834;BME280;8533;48.426;10.868;2023-02-03T06:32:10;97155.80;;;3.99;100.00
16834;BME280;8533;48.426;10.868;2023-02-03T06:34:37;97167.28;;;4.00;100.00
16834;BME280;8533;48.426;10.868;2023-02-03T06:37:05;97175.70;;;3.98;100.00
16834;BME280;8533;48.426;10.868;2023-02-03T06:39:32;97185.25;;;3.98;100.00
16834;BME280;8533;48.426;10.868;2023-02-03T06:41:59;97199.05;;;3.94;100.00
16834;BME280;8533;48.426;10.868;2023-02-03T06:44:27;97222.52;;;3.93;100.00
16834;BME280;8533;48.426;10.868;2023-02-03T06:46:55;97220.59;;;3.91;100.00
16834;BME280;8533;48.426;10.868;2023-02-03T06:49:29;97223.66;;;3.90;100.00
16834;BME280;8533;48.426;10.868;2023-02-03T06:51:58;97222.73;;;3.87;100.00
16834;BME280;8533;48.426;10.868;2023-02-03T06:54:22;97218.20;;;3.89;100.00
16834;BME280;8533;48.426;10.868;2023-02-03T06:56:52;97217.56;;;3.87;100.00
16834;BME280;8533;48.426;10.868;2023-02-03T06:59:22;97208.50;;;3.87;100.00
16834;BME280;8533;48.426;10.868;2023-02-03T07:01:49;97196.00;;;3.91;100.00
16834;BME280;8533;48.426;10.868;2023-02-03T07:04:18;97181.28;;;3.91;100.00
16834;BME280;8533;48.426;10.868;2023-02-03T07:06:47;97184.50;;;3.93;100.00
16834;BME280;8533;48.426;10.868;2023-02-03T07:09:20;97187.06;;;3.97;100.00
16834;BME280;8533;48.426;10.868;2023-02-03T07:11:44;97181.58;;;3.96;100.00
16834;BME280;8533;48.426;10.868;2023-02-03T07:14:11;97165.84;;;3.98;100.00
16834;BME280;8533;48.426;10.868;2023-02-03T07:16:44;97158.22;;;4.00;100.00
16834;BME280;8533;48.426;10.868;2023-02-03T07:19:11;97155.31;;;3.99;100.00
16834;BME280;8533;48.426;10.868;2023-02-03T07:21:38;97150.14;;;3.99;100.00
16834;BME280;8533;48.426;10.868;2023-02-03T07:24:05;97152.91;;;3.98;100.00
16834;BME280;8533;48.426;10.868;2023-02-03T07:26:35;97162.16;;;3.96;100.00
16834;BME280;8533;48.426;10.868;2023-02-03T07:29:04;97166.53;;;3.96;100.00
16834;BME280;8533;48.426;10.868;2023-02-03T07:31:39;97167.91;;;4.02;100.00
16834;BME280;8533;48.426;10.868;2023-02-03T07:34:04;97168.41;;;4.02;100.00
16834;BME280;8533;48.426;10.868;2023-02-03T07:36:33;97170.81;;;4.03;100.00
16834;BME280;8533;48.426;10.868;2023-02-03T07:39:01;97169.06;;;4.00;100.00
16834;BME280;8533;48.426;10.868;2023-02-03T07:41:28;97149.97;;;4.01;100.00
16834;BME280;8533;48.426;10.868;2023-02-03T07:43:56;97137.80;;;4.05;100.00
16834;BME280;8533;48.426;10.868;2023-02-03T07:46:23;97151.66;;;4.08;100.00
16834;BME280;8533;48.426;10.868;2023-02-03T07:48:51;97170.35;;;4.14;100.00
16834;BME280;8533;48.426;10.868;2023-02-03T07:51:18;97177.43;;;4.20;100.00
16834;BME280;8533;48.426;10.868;2023-02-03T07:53:45;97175.44;;;4.22;100.00
16834;BME280;8533;48.426;10.868;2023-02-03T07:56:13;97174.61;;;4.26;100.00
16834;BME280;8533;48.426;10.868;2023-02-03T07:58:40;97171.18;;;4.30;100.00
16834;BME280;8533;48.426;10.868;2023-02-03T08:01:13;97171.75;;;4.36;100.00
16834;BME280;8533;48.426;10.868;2023-02-03T08:03:41;97187.11;;;4.37;100.00
16834;BME280;8533;48.426;10.868;2023-02-03T08:06:09;97191.59;;;4.39;100.00
16834;BME280;8533;48.426;10.868;2023-02-03T08:08:37;97193.52;;;4.41;100.00
16834;BME280;8533;48.426;10.868;2023-02-03T08:11:06;97198.53;;;4.43;100.00
16834;BME280;8533;48.426;10.868;2023-02-03T08:13:33;97187.37;;;4.42;100.00
16834;BME280;8533;48.426;10.868;2023-02-03T08:16:01;97194.30;;;4.46;100.00
16834;BME280;8533;48.426;10.868;2023-02-03T08:18:28;97205.26;;;4.48;100.00
16834;BME280;8533;48.426;10.868;2023-02-03T08:20:55;97213.98;;;4.51;100.00
16834;BME280;8533;48.426;10.868;2023-02-03T08:23:23;97203.94;;;4.52;100.00
16834;BME280;8533;48.426;10.868;2023-02-03T08:25:52;97189.30;;;4.55;100.00
16834;BME280;8533;48.426;10.868;2023-02-03T08:28:20;97122.20;;;4.09;100.00
16834;BME280;8533;48.426;10.868;2023-02-03T08:30:47;97194.14;;;4.58;100.00
16834;BME280;8533;48.426;10.868;2023-02-03T08:33:14;97195.89;;;4.62;100.00
16834;BME280;8533;48.426;10.868;2023-02-03T08:35:44;97189.97;;;4.68;100.00
16834;BME280;8533;48.426;10.868;2023-02-03T08:38:11;97183.98;;;4.67;100.00
16834;BME280;8533;48.426;10.868;2023-02-03T08:40:39;97187.00;;;4.71;100.00
16834;BME280;8533;48.426;10.868;2023-02-03T08:43:06;97195.09;;;4.72;100.00
16834;BME280;8533;48.426;10.868;2023-02-03T08:45:34;97191.83;;;4.74;100.00
16834;BME280;8533;48.426;10.868;2023-02-03T08:48:01;97188.08;;;4.76;100.00
16834;BME280;8533;48.426;10.868;2023-02-03T08:50:29;97169.62;;;4.75;100.00
16834;BME280;8533;48.426;10.868;2023-02-03T08:52:56;97190.07;;;4.85;100.00
16834;BME280;8533;48.426;10.868;2023-02-03T08:55:24;97175.75;;;4.89;100.00
16834;BME280;8533;48.426;10.868;2023-02-03T08:57:51;97172.66;;;4.89;100.00
16834;BME280;8533;48.426;10.868;2023-02-03T09:00:19;97180.71;;;4.94;100.00
16834;BME280;8533;48.426;10.868;2023-02-03T09:02:47;97173.92;;;4.93;100.00
16834;BME280;8533;48.426;10.868;2023-02-03T09:05:16;97175.53;;;4.94;100.00
16834;BME280;8533;48.426;10.868;2023-02-03T09:07:44;97179.20;;;4.96;100.00
16834;BME280;8533;48.426;10.868;2023-02-03T09:10:11;97173.73;;;5.06;100.00
16834;BME280;8533;48.426;10.868;2023-02-03T09:12:38;97186.44;;;5.11;100.00
16834;BME280;8533;48.426;10.868;2023-02-03T09:15:06;97189.30;;;5.16;100.00
16834;BME280;8533;48.426;10.868;2023-02-03T09:17:34;97179.91;;;5.15;100.00
16834;BME280;8533;48.426;10.868;2023-02-03T09:20:01;97189.92;;;5.18;100.00
16834;BME280;8533;48.426;10.868;2023-02-03T09:22:28;97184.53;;;5.20;100.00
16834;BME280;8533;48.426;10.868;2023-02-03T09:24:56;97173.17;;;5.21;100.00
16834;BME280;8533;48.426;10.868;2023-02-03T09:27:23;97163.50;;;5.19;100.00
16834;BME280;8533;48.426;10.868;2023-02-03T09:29:51;97165.84;;;5.24;100.00
16834;BME280;8533;48.426;10.868;2023-02-03T09:32:19;97175.72;;;5.25;100.00
16834;BME280;8533;48.426;10.868;2023-02-03T09:34:46;97159.36;;;5.24;100.00
16834;BME280;8533;48.426;10.868;2023-02-03T09:37:14;97172.45;;;5.27;100.00
16834;BME280;8533;48.426;10.868;2023-02-03T09:39:41;97184.55;;;5.30;100.00
16834;BME280;8533;48.426;10.868;2023-02-03T09:42:35;97186.88;;;5.36;100.00
16834;BME280;8533;48.426;10.868;2023-02-03T09:45:25;97171.31;;;5.36;100.00
16834;BME280;8533;48.426;10.868;2023-02-03T09:47:56;97159.36;;;5.35;100.00
16834;BME280;8533;48.426;10.868;2023-02-03T09:50:27;97164.03;;;5.35;100.00
16834;BME280;8533;48.426;10.868;2023-02-03T09:52:55;97158.06;;;5.35;100.00
16834;BME280;8533;48.426;10.868;2023-02-03T09:55:27;97159.64;;;5.36;100.00
16834;BME280;8533;48.426;10.868;2023-02-03T09:58:05;97157.54;;;5.35;100.00
16834;BME280;8533;48.426;10.868;2023-02-03T10:00:39;97184.67;;;5.33;100.00
16834;BME280;8533;48.426;10.868;2023-02-03T10:03:14;97177.31;;;5.36;100.00
16834;BME280;8533;48.426;10.868;2023-02-03T10:19:09;97155.88;;;5.49;100.00
16834;BME280;8533;48.426;10.868;2023-02-03T10:21:51;97156.11;;;5.54;100.00
16834;BME280;8533;48.426;10.868;2023-02-03T10:24:20;97159.38;;;5.52;100.00
16834;BME280;8533;48.426;10.868;2023-02-03T10:26:48;97155.07;;;5.59;100.00
16834;BME280;8533;48.426;10.868;2023-02-03T10:29:25;97163.94;;;5.61;100.00
16834;BME280;8533;48.426;10.868;2023-02-03T10:31:49;97168.95;;;5.62;100.00
16834;BME280;8533;48.426;10.868;2023-02-03T10:34:17;97166.66;;;5.63;100.00
16834;BME280;8533;48.426;10.868;2023-02-03T10:37:01;97147.02;;;5.65;100.00
16834;BME280;8533;48.426;10.868;2023-02-03T10:42:00;97170.25;;;5.62;100.00
16834;BME280;8533;48.426;10.868;2023-02-03T10:44:37;97160.67;;;5.63;100.00
16834;BME280;8533;48.426;10.868;2023-02-03T10:49:52;97158.87;;;5.63;100.00
16834;BME280;8533;48.426;10.868;2023-02-03T10:52:34;97171.13;;;5.59;100.00
16834;BME280;8533;48.426;10.868;2023-02-03T10:55:05;97178.61;;;5.58;100.00
16834;BME280;8533;48.426;10.868;2023-02-03T10:57:34;97182.68;;;5.56;100.00
16834;BME280;8533;48.426;10.868;2023-02-03T11:03:00;97176.06;;;5.54;100.00
16834;BME280;8533;48.426;10.868;2023-02-03T11:05:26;97172.80;;;5.56;100.00
16834;BME280;8533;48.426;10.868;2023-02-03T11:07:53;97174.41;;;5.57;100.00
16834;BME280;8533;48.426;10.868;2023-02-03T11:13:22;97155.98;;;5.52;100.00
16834;BME280;8533;48.426;10.868;2023-02-03T11:18:59;97157.36;;;5.58;100.00
16834;BME280;8533;48.426;10.868;2023-02-03T11:21:30;97152.83;;;5.67;100.00
16834;BME280;8533;48.426;10.868;2023-02-03T11:24:08;97156.82;;;5.69;100.00
16834;BME280;8533;48.426;10.868;2023-02-03T11:26:44;97144.77;;;5.72;100.00
16834;BME280;8533;48.426;10.868;2023-02-03T11:29:04;97126.16;;;5.80;100.00
16834;BME280;8533;48.426;10.868;2023-02-03T11:31:36;97114.97;;;5.90;100.00
16834;BME280;8533;48.426;10.868;2023-02-03T11:34:09;97107.83;;;5.98;100.00
16834;BME280;8533;48.426;10.868;2023-02-03T11:36:34;97099.13;;;6.19;100.00
16834;BME280;8533;48.426;10.868;2023-02-03T11:39:16;97085.29;;;6.29;100.00
16834;BME280;8533;48.426;10.868;2023-02-03T11:41:46;97092.80;;;6.35;100.00
16834;BME280;8533;48.426;10.868;2023-02-03T11:46:50;97087.89;;;6.29;100.00
16834;BME280;8533;48.426;10.868;2023-02-03T11:52:09;97080.05;;;6.16;100.00
16834;BME280;8533;48.426;10.868;2023-02-03T11:54:51;97089.54;;;6.20;100.00
16834;BME280;8533;48.426;10.868;2023-02-03T11:57:36;97085.34;;;6.19;100.00
16834;BME280;8533;48.426;10.868;2023-02-03T12:00:18;97075.38;;;6.22;100.00
16834;BME280;8533;48.426;10.868;2023-02-03T12:03:13;97081.84;;;6.16;100.00
16834;BME280;8533;48.426;10.868;2023-02-03T12:08:26;97069.35;;;6.15;100.00
16834;BME280;8533;48.426;10.868;2023-02-03T12:11:08;97060.98;;;6.26;100.00
16834;BME280;8533;48.426;10.868;2023-02-03T12:16:50;97048.90;;;6.23;100.00
16834;BME280;8533;48.426;10.868;2023-02-03T12:20:08;97042.22;;;6.24;100.00
16834;BME280;8533;48.426;10.868;2023-02-03T12:21:59;97022.75;;;6.31;100.00
16834;BME280;8533;48.426;10.868;2023-02-03T12:29:41;97018.56;;;6.36;100.00
16834;BME280;8533;48.426;10.868;2023-02-03T12:38:21;96985.70;;;6.46;100.00
16834;BME280;8533;48.426;10.868;2023-02-03T12:40:24;96976.11;;;6.46;100.00
16834;BME280;8533;48.426;10.868;2023-02-03T12:42:53;96985.29;;;6.49;100.00
16834;BME280;8533;48.426;10.868;2023-02-03T12:45:23;96985.63;;;6.57;100.00
16834;BME280;8533;48.426;10.868;2023-02-03T12:47:59;96979.32;;;6.62;100.00
16834;BME280;8533;48.426;10.868;2023-02-03T12:50:34;96973.33;;;6.61;100.00
16834;BME280;8533;48.426;10.868;2023-02-03T12:53:00;96964.84;;;6.57;100.00
16834;BME280;8533;48.426;10.868;2023-02-03T12:55:36;96966.22;;;6.66;100.00
16834;BME280;8533;48.426;10.868;2023-02-03T12:58:23;96979.62;;;6.69;100.00
16834;BME280;8533;48.426;10.868;2023-02-03T13:01:11;96962.73;;;6.63;100.00
16834;BME280;8533;48.426;10.868;2023-02-03T13:04:17;96960.22;;;6.59;100.00
16834;BME280;8533;48.426;10.868;2023-02-03T13:06:52;96954.94;;;6.56;100.00
16834;BME280;8533;48.426;10.868;2023-02-03T13:09:27;96950.31;;;6.51;100.00
16834;BME280;8533;48.426;10.868;2023-02-03T13:12:14;96938.44;;;6.53;100.00
16834;BME280;8533;48.426;10.868;2023-02-03T13:14:50;96953.14;;;6.57;100.00
16834;BME280;8533;48.426;10.868;2023-02-03T13:17:19;96959.22;;;6.53;100.00
16834;BME280;8533;48.426;10.868;2023-02-03T13:19:51;96952.03;;;6.48;100.00
16834;BME280;8533;48.426;10.868;2023-02-03T13:22:21;96957.62;;;6.45;100.00
16834;BME280;8533;48.426;10.868;2023-02-03T13:25:01;96961.59;;;6.41;100.00
16834;BME280;8533;48.426;10.868;2023-02-03T13:27:43;96947.22;;;6.39;100.00
16834;BME280;8533;48.426;10.868;2023-02-03T13:35:49;96939.01;;;6.35;100.00
16834;BME280;8533;48.426;10.868;2023-02-03T13:41:09;96933.81;;;6.29;100.00
16834;BME280;8533;48.426;10.868;2023-02-03T13:43:37;96940.91;;;6.24;100.00
16834;BME280;8533;48.426;10.868;2023-02-03T13:46:06;96934.42;;;6.24;100.00
16834;BME280;8533;48.426;10.868;2023-02-03T13:48:36;96922.20;;;6.18;100.00
16834;BME280;8533;48.426;10.868;2023-02-03T13:51:14;96925.10;;;6.19;100.00
16834;BME280;8533;48.426;10.868;2023-02-03T13:53:42;96925.71;;;6.21;100.00
16834;BME280;8533;48.426;10.868;2023-02-03T13:56:19;96897.83;;;6.19;100.00
16834;BME280;8533;48.426;10.868;2023-02-03T14:01:34;96899.13;;;6.19;100.00
16834;BME280;8533;48.426;10.868;2023-02-03T14:04:04;96892.33;;;6.18;100.00
16834;BME280;8533;48.426;10.868;2023-02-03T14:06:53;96897.44;;;6.22;100.00
16834;BME280;8533;48.426;10.868;2023-02-03T14:12:31;96882.24;;;6.19;100.00
16834;BME280;8533;48.426;10.868;2023-02-03T14:15:12;96887.25;;;6.21;100.00
16834;BME280;8533;48.426;10.868;2023-02-03T14:25:29;96887.94;;;6.19;100.00
16834;BME280;8533;48.426;10.868;2023-02-03T14:28:02;96906.92;;;6.19;100.00
16834;BME280;8533;48.426;10.868;2023-02-03T14:30:30;96921.81;;;6.21;100.00
16834;BME280;8533;48.426;10.868;2023-02-03T14:33:00;96912.11;;;6.19;100.00
16834;BME280;8533;48.426;10.868;2023-02-03T14:35:32;96918.00;;;6.17;100.00
16834;BME280;8533;48.426;10.868;2023-02-03T14:38:03;96917.42;;;6.15;100.00
16834;BME280;8533;48.426;10.868;2023-02-03T14:40:41;96912.91;;;6.13;100.00
16834;BME280;8533;48.426;10.868;2023-02-03T14:59:38;96866.86;;;6.11;100.00
16834;BME280;8533;48.426;10.868;2023-02-03T15:04:34;96877.74;;;6.10;100.00